Salem, New Jersey
Current Conditions -  °F | °C
As of 1:51 AM on Saturday 20 Dec 2014 (Local Time) from KILG Reporting Station
Overcast Overcast  
Wind Chill: 26°   Ceiling: 3600
Heat Index: 31°   Visibility: 10mi
Dew Point: 23°   Wind: 5mph
Humidity: 72%   Direction: 270°W
Pressure: 30.22"   Gusts: NA
Location:  39.57°N, 75.47°W
Report Text: KILG 200651Z 27004KT 10SM OVC036 M01/M05 A3022 RMK AO2 SLP234 T10061050
Loading
Personal Weather Stations






























Interactive Weather Map New forecast layout! Learn more

10-Day Weather Forecast

Advertisements
Track Severe Weather on mobile